createdAt,value
2023-01-31T00:02:52.764Z,99251.21
2023-01-31T00:07:45.542Z,99246.92
2023-01-31T00:12:38.439Z,99254.98
2023-01-31T00:17:31.287Z,99260.49
2023-01-31T00:22:24.461Z,99255.91
2023-01-31T00:27:17.245Z,99268.63
2023-01-31T00:32:10.413Z,99274.52
2023-01-31T00:37:03.271Z,99279.54
2023-01-31T00:41:59.106Z,99287.65
2023-01-31T00:46:51.956Z,99287.88
2023-01-31T00:51:45.372Z,99298.84
2023-01-31T00:56:38.786Z,99299.20
2023-01-31T01:01:31.666Z,99302.63
2023-01-31T01:06:25.502Z,99305.89
2023-01-31T01:11:24.896Z,99306.60
2023-01-31T01:16:23.662Z,99311.08
2023-01-31T01:21:23.056Z,99314.04
2023-01-31T01:26:25.255Z,99316.79
2023-01-31T01:31:20.084Z,99316.80
2023-01-31T01:36:17.440Z,99321.42
2023-01-31T01:41:13.534Z,99325.05
2023-01-31T01:46:06.488Z,99324.89
2023-01-31T01:51:00.616Z,99329.85
2023-01-31T01:55:58.384Z,99343.04
2023-01-31T02:00:54.880Z,99353.02
2023-01-31T02:05:57.039Z,99359.70
2023-01-31T02:10:52.519Z,99371.71
2023-01-31T02:15:46.256Z,99378.58
2023-01-31T02:21:01.979Z,99389.52
2023-01-31T02:26:43.431Z,99397.40
2023-01-31T02:32:01.204Z,99412.81
2023-01-31T02:37:13.610Z,99414.77
2023-01-31T02:42:23.082Z,99415.14
2023-01-31T02:47:43.804Z,99417.20
2023-01-31T02:52:48.044Z,99429.72
2023-01-31T02:57:43.244Z,99437.13
2023-01-31T03:02:36.631Z,99449.80
2023-01-31T03:07:38.092Z,99454.29
2023-01-31T03:12:51.077Z,99465.79
2023-01-31T03:18:07.035Z,99475.72
2023-01-31T03:23:05.018Z,99482.05
2023-01-31T03:28:03.324Z,99485.85
2023-01-31T03:33:15.889Z,99492.55
2023-01-31T03:38:15.367Z,99500.60
2023-01-31T03:43:22.232Z,99503.67
2023-01-31T03:48:19.546Z,99501.98
2023-01-31T03:53:26.734Z,99505.41
2023-01-31T03:58:23.268Z,99506.27
2023-01-31T04:03:28.201Z,99512.77
2023-01-31T04:08:21.658Z,99515.52
2023-01-31T04:13:22.644Z,99519.10
2023-01-31T04:18:15.475Z,99527.11
2023-01-31T04:23:08.344Z,99527.42
2023-01-31T04:28:03.325Z,99534.42
2023-01-31T04:32:58.746Z,99542.99
2023-01-31T04:37:51.563Z,99553.39
2023-01-31T04:42:48.492Z,99563.27
2023-01-31T04:47:43.979Z,99568.08
2023-01-31T04:52:37.191Z,99574.29
2023-01-31T04:57:31.760Z,99576.16
2023-01-31T05:02:27.023Z,99583.04
2023-01-31T05:07:19.914Z,99588.70
2023-01-31T05:12:13.363Z,99599.42
2023-01-31T05:17:06.959Z,99610.09
2023-01-31T05:22:01.431Z,99619.36
2023-01-31T05:26:59.690Z,99629.23
2023-01-31T05:31:54.521Z,99634.30
2023-01-31T05:36:47.913Z,99649.70
2023-01-31T05:41:40.837Z,99659.29
2023-01-31T05:46:34.037Z,99672.50
2023-01-31T05:51:26.888Z,99675.74
2023-01-31T05:56:19.715Z,99681.91
2023-01-31T06:01:12.560Z,99686.39
2023-01-31T06:06:05.608Z,99692.61
2023-01-31T06:11:02.213Z,99705.54
2023-01-31T06:15:55.059Z,99717.33
2023-01-31T06:20:47.852Z,99734.28
2023-01-31T06:25:40.706Z,99746.88
2023-01-31T06:30:34.190Z,99756.79
2023-01-31T06:35:27.842Z,99768.54
2023-01-31T06:40:20.823Z,99774.34
2023-01-31T06:45:13.697Z,99781.02
2023-01-31T06:50:06.955Z,99788.16
2023-01-31T06:54:59.814Z,99795.85
2023-01-31T06:59:52.680Z,99799.27
2023-01-31T07:04:45.536Z,99812.89
2023-01-31T07:09:38.419Z,99822.78
2023-01-31T07:14:31.459Z,99830.20
2023-01-31T07:19:24.370Z,99832.27
2023-01-31T07:24:17.612Z,99834.36
2023-01-31T07:29:12.024Z,99845.36
2023-01-31T07:34:05.293Z,99852.29
2023-01-31T07:39:01.239Z,99851.95
2023-01-31T07:43:54.119Z,99851.47
2023-01-31T07:48:46.924Z,99857.96
2023-01-31T07:53:42.283Z,99868.30
2023-01-31T07:58:39.333Z,99875.95
2023-01-31T08:03:36.432Z,99879.95
2023-01-31T08:08:29.655Z,99890.79
2023-01-31T08:13:23.787Z,99901.02
2023-01-31T08:18:16.601Z,99904.59
2023-01-31T08:23:09.418Z,99912.83
2023-01-31T08:28:03.358Z,99921.23
2023-01-31T08:32:56.671Z,99931.34
2023-01-31T08:37:50.057Z,99934.77
2023-01-31T08:42:43.035Z,99942.11
2023-01-31T08:47:36.778Z,99948.79
2023-01-31T08:52:30.112Z,99953.21
2023-01-31T08:57:23.069Z,99953.84
2023-01-31T09:02:16.299Z,99957.33
2023-01-31T09:07:09.180Z,99959.48
2023-01-31T09:12:02.321Z,99965.09
2023-01-31T09:16:55.265Z,99966.51
2023-01-31T09:21:48.159Z,99965.86
2023-01-31T09:26:41.087Z,99977.21
2023-01-31T09:31:34.158Z,99973.89
2023-01-31T09:36:28.488Z,99981.57
2023-01-31T09:41:29.979Z,99985.40
2023-01-31T09:46:27.685Z,99983.27
2023-01-31T09:51:22.281Z,99979.53
2023-01-31T09:56:24.440Z,99985.30
2023-01-31T10:01:33.084Z,99983.29
2023-01-31T10:06:31.723Z,99985.46
2023-01-31T10:11:36.626Z,99992.54
2023-01-31T10:16:44.555Z,99995.05
2023-01-31T10:21:45.140Z,100000.64
2023-01-31T10:26:42.058Z,99998.55
2023-01-31T10:31:44.823Z,99995.23
2023-01-31T10:36:46.389Z,99993.02
2023-01-31T10:42:12.694Z,99991.91
2023-01-31T10:47:14.154Z,99985.91
2023-01-31T10:52:06.883Z,99987.41
2023-01-31T10:57:00.210Z,99989.95
2023-01-31T11:01:53.475Z,99989.68
2023-01-31T11:06:46.287Z,99989.08
2023-01-31T11:11:56.367Z,99981.38
2023-01-31T11:16:50.679Z,99982.68
2023-01-31T11:21:49.046Z,99983.88
2023-01-31T11:26:56.789Z,99985.91
2023-01-31T11:31:50.895Z,99989.05
2023-01-31T11:36:45.948Z,99980.44
2023-01-31T11:41:43.100Z,99974.96
2023-01-31T11:46:45.574Z,99983.52
2023-01-31T11:51:40.508Z,99986.69
2023-01-31T11:56:38.233Z,99985.66
2023-01-31T12:01:31.889Z,99984.11
2023-01-31T12:06:37.418Z,99978.16
2023-01-31T12:11:31.683Z,99974.46
2023-01-31T12:16:28.660Z,99969.34
2023-01-31T12:21:24.207Z,99964.83
2023-01-31T12:26:35.499Z,99964.25
2023-01-31T12:31:47.488Z,99961.07
2023-01-31T12:36:58.696Z,99958.73
2023-01-31T12:42:03.544Z,99955.77
2023-01-31T12:47:11.630Z,99957.35
2023-01-31T12:52:23.205Z,99958.60
2023-01-31T12:57:46.872Z,99959.20
2023-01-31T13:03:13.160Z,99953.41
2023-01-31T13:08:17.658Z,99953.52
2023-01-31T13:13:28.242Z,99954.70
2023-01-31T13:18:23.612Z,99949.05
2023-01-31T13:23:25.216Z,99939.59
2023-01-31T13:28:24.262Z,99938.97
2023-01-31T13:33:20.170Z,99933.55
2023-01-31T13:38:18.307Z,99933.52
2023-01-31T13:43:16.773Z,99936.09
2023-01-31T13:48:20.537Z,99925.95
2023-01-31T13:53:29.078Z,99930.64
2023-01-31T13:58:33.491Z,99930.05
2023-01-31T14:03:27.561Z,99939.65
2023-01-31T14:08:26.578Z,99954.33
2023-01-31T14:13:27.962Z,99954.76
2023-01-31T14:18:59.820Z,99961.54
2023-01-31T14:23:52.836Z,99962.52
2023-01-31T14:28:45.928Z,99960.92
2023-01-31T14:33:38.821Z,99956.93
2023-01-31T14:38:45.184Z,99955.85
2023-01-31T14:44:03.530Z,99956.13
2023-01-31T14:49:21.739Z,99961.20
2023-01-31T14:54:36.376Z,99961.86
2023-01-31T14:59:37.628Z,99955.80
2023-01-31T15:04:30.612Z,99949.17
2023-01-31T15:09:24.771Z,99945.98
2023-01-31T15:14:33.727Z,99943.02
2023-01-31T15:19:31.857Z,99942.31
2023-01-31T15:24:33.825Z,99942.61
2023-01-31T15:29:34.609Z,99942.39
2023-01-31T15:34:33.888Z,99943.52
2023-01-31T15:39:33.509Z,99937.76
2023-01-31T15:44:29.378Z,99939.48
2023-01-31T15:49:38.160Z,99937.50
2023-01-31T15:54:32.714Z,99947.52
2023-01-31T15:59:29.668Z,99942.01
2023-01-31T16:04:23.490Z,99936.43
2023-01-31T16:09:38.527Z,99941.98
2023-01-31T16:14:31.831Z,99951.48
2023-01-31T16:19:36.072Z,99951.44
2023-01-31T16:24:29.663Z,99959.05
2023-01-31T16:29:25.702Z,99956.05
2023-01-31T16:34:27.561Z,99949.52
2023-01-31T16:39:34.339Z,99946.48
2023-01-31T16:44:35.122Z,99937.63
2023-01-31T16:50:42.568Z,99936.85
2023-01-31T16:55:49.656Z,99929.86
2023-01-31T17:00:45.062Z,99925.73
2023-01-31T17:05:45.262Z,99913.92
2023-01-31T17:10:41.366Z,99909.16
2023-01-31T17:15:34.178Z,99900.91
2023-01-31T17:20:27.003Z,99895.60
2023-01-31T17:25:22.653Z,99891.72
2023-01-31T17:30:18.059Z,99886.11
2023-01-31T17:35:21.474Z,99883.72
2023-01-31T17:40:14.643Z,99873.77
2023-01-31T17:45:13.415Z,99869.96
2023-01-31T17:50:06.676Z,99858.77
2023-01-31T17:54:59.523Z,99849.54
2023-01-31T17:59:53.223Z,99832.04
2023-01-31T18:04:46.653Z,99824.46
2023-01-31T18:09:39.728Z,99815.55
2023-01-31T18:14:32.887Z,99805.91
2023-01-31T18:19:25.993Z,99796.42
2023-01-31T18:24:18.830Z,99791.77
2023-01-31T18:29:19.523Z,99782.65
2023-01-31T18:34:12.427Z,99777.14
2023-01-31T18:39:05.224Z,99772.25
2023-01-31T18:43:58.343Z,99768.23
2023-01-31T18:48:51.118Z,99756.55
2023-01-31T18:53:47.418Z,99750.08
2023-01-31T18:58:42.127Z,99737.39
2023-01-31T19:03:35.175Z,99722.65
2023-01-31T19:08:28.054Z,99714.66
2023-01-31T19:13:20.925Z,99715.76
2023-01-31T19:18:14.941Z,99707.08
2023-01-31T19:23:07.748Z,99704.09
2023-01-31T19:28:01.198Z,99703.14
2023-01-31T19:32:54.019Z,99699.42
2023-01-31T19:37:46.837Z,99689.89
2023-01-31T19:42:40.944Z,99676.18
2023-01-31T19:47:34.249Z,99667.27
2023-01-31T19:52:27.036Z,99658.74
2023-01-31T19:57:59.929Z,99647.33
2023-01-31T20:02:52.761Z,99632.44
2023-01-31T20:07:45.712Z,99616.21
2023-01-31T20:12:38.674Z,99608.38
2023-01-31T20:17:31.556Z,99594.06
2023-01-31T20:22:24.736Z,99588.58
2023-01-31T20:27:17.602Z,99571.80
2023-01-31T20:32:13.370Z,99556.55
2023-01-31T20:37:06.174Z,99553.63
2023-01-31T20:41:59.054Z,99543.10
2023-01-31T20:46:51.948Z,99538.89
2023-01-31T20:51:45.096Z,99523.54
2023-01-31T20:56:37.880Z,99516.92
2023-01-31T21:01:30.696Z,99510.58
2023-01-31T21:06:23.492Z,99502.66
2023-01-31T21:11:16.660Z,99495.17
2023-01-31T21:16:12.086Z,99484.20
2023-01-31T21:21:09.813Z,99479.23
2023-01-31T21:26:04.007Z,99469.95
2023-01-31T21:31:02.268Z,99458.46
2023-01-31T21:35:58.335Z,99448.41
2023-01-31T21:41:12.725Z,99442.63
2023-01-31T21:46:09.499Z,99427.11
2023-01-31T21:51:07.730Z,99422.66
2023-01-31T21:56:10.669Z,99409.84
2023-01-31T22:01:04.697Z,99398.45
2023-01-31T22:06:05.429Z,99393.10
2023-01-31T22:11:07.066Z,99382.65
2023-01-31T22:16:09.908Z,99372.77
2023-01-31T22:21:14.423Z,99370.81
2023-01-31T22:26:13.455Z,99366.48
2023-01-31T22:31:08.123Z,99364.74
2023-01-31T22:36:01.140Z,99350.95
2023-01-31T22:41:00.319Z,99344.09
2023-01-31T22:45:55.304Z,99341.77
2023-01-31T22:50:55.979Z,99335.85
2023-01-31T22:55:51.307Z,99327.14
2023-01-31T23:00:44.216Z,99322.73
2023-01-31T23:05:41.320Z,99311.36
2023-01-31T23:10:34.221Z,99307.73
2023-01-31T23:15:26.877Z,99299.48
2023-01-31T23:20:22.446Z,99293.67
2023-01-31T23:25:16.039Z,99294.85
2023-01-31T23:30:11.031Z,99286.44
2023-01-31T23:35:07.376Z,99274.60
2023-01-31T23:40:00.864Z,99264.86
2023-01-31T23:44:53.877Z,99261.63
2023-01-31T23:49:46.900Z,99262.83
2023-01-31T23:54:39.568Z,99259.73
2023-01-31T23:59:35.391Z,99249.27
